METAR Data
IDs: Format: Raw Decoded Include TAF

Data at: 0728 UTC 01 Aug 2021

LFCR 010700Z AUTO 27009KT 9999 BKN008 OVC012 12/11 Q1016 BECMG BKN017